Погода Могилянскийна неделю

Ростовская область, Россия

15 - 21 июля
  • 15июля
    Сегодня
    +21°
    +36°
    Практически безоблачно
    ВремяПогодаТемператураВлажностьДавлениеВетер, м/сВероятность осадков
    00:00Ясно и безоблачно+23°C49 %746 мм1.8 м/с2 %
    03:00Ясно и безоблачно+21°C53 %745 мм1.7 м/с2 %
    06:00Ясно и безоблачно+22°C51 %746 мм2.0 м/с2 %
    09:00Ясно и безоблачно+30°C40 %746 мм1.4 м/с2 %
    12:00Ясно и безоблачно+34°C39 %746 мм4.3 м/с5 %
    15:00Практически безоблачно+36°C33 %745 мм3.8 м/с8 %
    18:00Практически безоблачно+35°C31 %745 мм4.0 м/с9 %
    21:00Небольшая облачность+29°C42 %745 мм2.9 м/с2 %
  • 16июля
    Вторник
    +23°
    +37°
    Практически безоблачно
    ВремяПогодаТемператураВлажностьДавлениеВетер, м/сВероятность осадков
    00:00Ясно и безоблачно+25°C51 %746 мм3.0 м/с2 %
    03:00Ясно и безоблачно+23°C60 %746 мм2.2 м/с2 %
    06:00Ясно и безоблачно+23°C61 %746 мм2.4 м/с2 %
    09:00Ясно и безоблачно+31°C39 %746 мм1.8 м/с2 %
    12:00Практически безоблачно+34°C32 %746 мм2.2 м/с2 %
    15:00Практически безоблачно+36°C28 %746 мм2.7 м/с2 %
    18:00Практически безоблачно+36°C27 %745 мм3.3 м/с2 %
    21:00Небольшая облачность+31°C37 %746 мм4.2 м/с2 %
  • 17июля
    Среда
    +22°
    +36°
    Практически безоблачно
    ВремяПогодаТемператураВлажностьДавлениеВетер, м/сВероятность осадков
    00:00Практически безоблачно+26°C50 %746 мм2.9 м/с2 %
    03:00Ясно и безоблачно+24°C58 %746 мм2.6 м/с2 %
    06:00Ясно и безоблачно+24°C60 %747 мм3.5 м/с2 %
    09:00Ясно и безоблачно+31°C42 %747 мм3.9 м/с2 %
    12:00Ясно и безоблачно+34°C35 %747 мм3.2 м/с2 %
    15:00Практически безоблачно+35°C32 %747 мм3.3 м/с3 %
    18:00Практически безоблачно+36°C32 %746 мм3.0 м/с3 %
    21:00Ясно и безоблачно+30°C40 %746 мм2.9 м/с2 %
  • 18июля
    Четверг
    +23°
    +38°
    Практически безоблачно
    ВремяПогодаТемператураВлажностьДавлениеВетер, м/сВероятность осадков
    00:00Ясно и безоблачно+26°C47 %747 мм2.9 м/с2 %
    03:00Ясно и безоблачно+23°C57 %746 мм1.9 м/с2 %
    06:00Ясно и безоблачно+24°C58 %746 мм2.3 м/с2 %
    09:00Ясно и безоблачно+31°C37 %747 мм2.0 м/с2 %
    12:00Ясно и безоблачно+35°C30 %746 мм1.3 м/с2 %
    15:00Практически безоблачно+37°C26 %745 мм1.3 м/с3 %
    18:00Практически безоблачно+37°C25 %744 мм4.2 м/с10 %
    21:00Ясно и безоблачно+31°C40 %745 мм3.5 м/с3 %
  • 19июля
    Пятница
    +19°
    +35°
    Практически безоблачно
    ВремяПогодаТемператураВлажностьДавлениеВетер, м/сВероятность осадков
    00:00Ясно и безоблачно+26°C52 %745 мм1.6 м/с2 %
    03:00Ясно и безоблачно+24°C57 %744 мм2.5 м/с2 %
    06:00Ясно и безоблачно+24°C63 %744 мм3.2 м/с3 %
    09:00Практически безоблачно+30°C53 %744 мм4.4 м/с5 %
    12:00Практически безоблачно+33°C39 %744 мм4.5 м/с13 %
    15:00Практически безоблачно+35°C31 %743 мм4.9 м/с29 %
    18:00Ясно и безоблачно+33°C34 %743 мм5.3 м/с35 %
    21:00Ясно и безоблачно+28°C40 %743 мм3.5 м/с4 %
Мы используем cookies
Соглашаюсь